createdAt,value
2023-04-18T00:02:38.806Z,79.97
2023-04-18T00:07:38.566Z,81.39
2023-04-18T00:12:37.780Z,83.03
2023-04-18T00:17:40.137Z,83.83
2023-04-18T00:22:43.954Z,82.28
2023-04-18T00:27:43.006Z,81.13
2023-04-18T00:32:41.934Z,80.56
2023-04-18T00:37:40.916Z,81.00
2023-04-18T00:42:40.539Z,81.15
2023-04-18T00:47:39.497Z,80.85
2023-04-18T00:52:38.909Z,80.72
2023-04-18T00:57:38.328Z,80.42
2023-04-18T01:02:38.276Z,79.60
2023-04-18T01:07:40.788Z,78.72
2023-04-18T01:12:39.664Z,79.43
2023-04-18T01:17:38.509Z,78.47
2023-04-18T01:22:37.542Z,78.36
2023-04-18T01:27:40.269Z,77.67
2023-04-18T01:32:39.135Z,77.29
2023-04-18T01:37:38.029Z,77.50
2023-04-18T01:42:37.019Z,77.22
2023-04-18T01:47:36.002Z,76.60
2023-04-18T01:52:34.958Z,77.35
2023-04-18T01:57:36.664Z,77.62
2023-04-18T02:02:35.776Z,78.45
2023-04-18T02:07:36.055Z,78.61
2023-04-18T02:12:35.047Z,77.81
2023-04-18T02:22:34.331Z,77.56
2023-04-18T02:27:33.100Z,77.15
2023-04-18T02:32:32.170Z,77.32
2023-04-18T02:37:31.377Z,77.61
2023-04-18T02:42:30.780Z,76.78
2023-04-18T02:47:33.308Z,77.04
2023-04-18T02:52:34.225Z,77.25
2023-04-18T02:57:33.054Z,77.60
2023-04-18T03:02:46.385Z,77.86
2023-04-18T03:08:03.697Z,77.32
2023-04-18T03:13:03.114Z,78.45
2023-04-18T03:18:02.436Z,77.62
2023-04-18T03:23:05.793Z,76.77
2023-04-18T03:28:47.800Z,77.07
2023-04-18T03:33:49.176Z,77.20
2023-04-18T03:38:48.416Z,77.20
2023-04-18T03:43:47.153Z,77.34
2023-04-18T03:48:46.179Z,78.01
2023-04-18T03:53:45.121Z,76.92
2023-04-18T03:58:43.984Z,76.90
2023-04-18T04:03:43.171Z,76.08
2023-04-18T04:08:42.119Z,76.66
2023-04-18T04:13:41.185Z,76.32
2023-04-18T04:18:40.683Z,76.61
2023-04-18T04:23:42.665Z,75.15
2023-04-18T04:28:47.480Z,66.14
2023-04-18T04:33:50.600Z,63.19
2023-04-18T04:38:52.401Z,61.16
2023-04-18T04:43:57.858Z,61.03
2023-04-18T04:49:01.350Z,60.50
2023-04-18T04:54:00.600Z,61.17
2023-04-18T04:59:00.014Z,60.28
2023-04-18T05:04:18.407Z,67.67
2023-04-18T05:09:17.420Z,70.97
2023-04-18T05:14:17.639Z,71.72
2023-04-18T05:19:16.446Z,73.70
2023-04-18T05:24:15.302Z,72.83
2023-04-18T05:29:14.340Z,72.77
2023-04-18T05:34:13.418Z,73.61
2023-04-18T05:39:12.464Z,73.84
2023-04-18T05:44:11.337Z,75.30
2023-04-18T05:49:10.184Z,74.84
2023-04-18T05:54:08.903Z,73.80
2023-04-18T05:59:07.677Z,73.73
2023-04-18T06:04:07.570Z,75.19
2023-04-18T06:09:06.546Z,75.14
2023-04-18T06:14:05.574Z,74.79
2023-04-18T06:19:05.283Z,75.28
2023-04-18T06:24:04.245Z,75.27
2023-04-18T06:29:03.208Z,74.80
2023-04-18T06:34:01.917Z,74.41
2023-04-18T06:39:01.124Z,74.82
2023-04-18T06:44:04.225Z,74.68
2023-04-18T06:49:03.842Z,74.32
2023-04-18T06:54:02.672Z,74.47
2023-04-18T06:59:01.715Z,74.39
2023-04-18T07:04:00.932Z,74.20
2023-04-18T07:09:01.577Z,75.07
2023-04-18T07:14:00.445Z,74.73
2023-04-18T07:18:59.210Z,74.32
2023-04-18T07:23:57.954Z,74.38
2023-04-18T07:28:56.751Z,74.67
2023-04-18T07:33:55.649Z,75.22
2023-04-18T07:38:54.656Z,75.07
2023-04-18T07:43:53.534Z,74.98
2023-04-18T07:48:52.528Z,75.02
2023-04-18T07:53:51.386Z,75.17
2023-04-18T07:58:50.231Z,75.78
2023-04-18T08:03:49.411Z,74.48
2023-04-18T08:08:48.351Z,74.18
2023-04-18T08:13:47.289Z,73.34
2023-04-18T08:18:46.260Z,74.45
2023-04-18T08:23:46.669Z,73.61
2023-04-18T08:28:46.592Z,75.78
2023-04-18T08:33:45.575Z,73.78
2023-04-18T08:38:44.305Z,73.49
2023-04-18T08:43:48.071Z,72.21
2023-04-18T08:48:50.031Z,72.29
2023-04-18T08:53:50.656Z,72.20
2023-04-18T08:58:50.565Z,72.66
2023-04-18T09:03:50.495Z,72.87
2023-04-18T09:09:10.648Z,70.76
2023-04-18T09:14:24.276Z,71.54
2023-04-18T09:19:23.868Z,72.73
2023-04-18T09:24:24.956Z,72.36
2023-04-18T09:29:43.546Z,72.43
2023-04-18T09:34:42.715Z,73.11
2023-04-18T09:39:44.027Z,74.46
2023-04-18T09:45:04.113Z,75.68
2023-04-18T09:50:08.430Z,75.98
2023-04-18T09:55:09.701Z,76.23
2023-04-18T10:00:17.091Z,75.36
2023-04-18T10:05:19.509Z,75.70
2023-04-18T10:10:19.708Z,76.15
2023-04-18T10:15:21.426Z,76.45
2023-04-18T10:20:22.793Z,75.86
2023-04-18T10:25:39.931Z,75.97
2023-04-18T10:30:41.659Z,75.82
2023-04-18T10:36:03.138Z,78.20
2023-04-18T10:41:26.746Z,77.32
2023-04-18T10:46:32.564Z,74.52
2023-04-18T10:51:32.282Z,74.12
2023-04-18T10:56:31.303Z,75.20
2023-04-18T11:01:33.013Z,75.31
2023-04-18T11:06:32.398Z,75.90
2023-04-18T11:11:31.199Z,77.91
2023-04-18T11:16:32.723Z,77.47
2023-04-18T11:21:32.253Z,77.82
2023-04-18T11:26:31.056Z,78.46
2023-04-18T11:31:31.603Z,77.34
2023-04-18T11:36:35.193Z,77.61
2023-04-18T11:41:33.938Z,78.62
2023-04-18T11:46:39.648Z,78.77
2023-04-18T11:51:38.920Z,79.31
2023-04-18T11:56:47.480Z,79.71
2023-04-18T12:01:46.363Z,79.22
2023-04-18T12:06:46.607Z,79.05
2023-04-18T12:12:00.198Z,77.59
2023-04-18T12:16:58.933Z,79.49
2023-04-18T12:22:06.641Z,78.46
2023-04-18T12:27:05.484Z,79.02
2023-04-18T12:32:04.494Z,79.00
2023-04-18T12:37:04.927Z,78.46
2023-04-18T12:42:03.877Z,77.70
2023-04-18T12:47:02.753Z,78.72
2023-04-18T12:52:01.612Z,79.22
2023-04-18T12:57:01.883Z,78.92
2023-04-18T13:02:00.860Z,78.01
2023-04-18T13:06:59.699Z,78.84
2023-04-18T13:11:58.887Z,77.82
2023-04-18T13:16:57.820Z,78.58
2023-04-18T13:21:56.970Z,78.41
2023-04-18T13:26:56.555Z,78.35
2023-04-18T13:31:55.673Z,78.43
2023-04-18T13:36:54.476Z,78.45
2023-04-18T13:41:54.781Z,78.08
2023-04-18T13:46:54.548Z,77.83
2023-04-18T13:51:53.606Z,78.40
2023-04-18T13:56:59.541Z,77.16
2023-04-18T14:01:59.123Z,77.06
2023-04-18T14:06:58.048Z,77.21
2023-04-18T14:11:58.276Z,78.79
2023-04-18T14:16:57.299Z,77.89
2023-04-18T14:21:56.188Z,77.55
2023-04-18T14:26:55.014Z,77.33
2023-04-18T14:31:53.822Z,78.25
2023-04-18T14:36:52.728Z,77.49
2023-04-18T14:41:51.534Z,77.73
2023-04-18T14:46:50.832Z,78.97
2023-04-18T14:51:49.611Z,77.50
2023-04-18T14:56:48.397Z,76.64
2023-04-18T15:01:47.282Z,77.24
2023-04-18T15:06:46.438Z,76.92
2023-04-18T15:11:45.345Z,77.66
2023-04-18T15:16:44.304Z,77.11
2023-04-18T15:21:43.123Z,77.77
2023-04-18T15:26:42.281Z,77.67
2023-04-18T15:31:41.094Z,78.13
2023-04-18T15:36:39.923Z,78.96
2023-04-18T15:41:39.321Z,78.42
2023-04-18T15:46:38.556Z,78.38
2023-04-18T15:51:37.692Z,78.46
2023-04-18T15:56:36.949Z,78.09
2023-04-18T16:01:35.806Z,78.47
2023-04-18T16:06:34.580Z,78.19
2023-04-18T16:11:33.414Z,79.27
2023-04-18T16:16:34.316Z,78.78
2023-04-18T16:21:33.169Z,78.59
2023-04-18T16:26:31.970Z,78.44
2023-04-18T16:31:30.913Z,79.21
2023-04-18T16:36:29.726Z,80.05
2023-04-18T16:41:28.612Z,81.22
2023-04-18T16:46:31.352Z,81.64
2023-04-18T16:51:31.252Z,81.26
2023-04-18T16:56:30.061Z,79.94
2023-04-18T17:01:28.954Z,77.12
2023-04-18T17:06:27.846Z,78.01
2023-04-18T17:11:26.652Z,79.98
2023-04-18T17:16:26.244Z,81.46
2023-04-18T17:21:25.093Z,80.85
2023-04-18T17:26:25.756Z,80.24
2023-04-18T17:31:24.622Z,79.75
2023-04-18T17:36:24.760Z,80.18
2023-04-18T17:41:23.522Z,79.18
2023-04-18T17:46:22.262Z,79.19
2023-04-18T17:51:21.137Z,78.53
2023-04-18T17:56:22.117Z,78.96
2023-04-18T18:01:22.079Z,78.21
2023-04-18T18:06:21.266Z,77.54
2023-04-18T18:11:21.000Z,77.17
2023-04-18T18:16:20.452Z,77.69
2023-04-18T18:21:19.203Z,78.59
2023-04-18T18:26:17.984Z,79.29
2023-04-18T18:31:17.511Z,80.01
2023-04-18T18:36:16.477Z,79.55
2023-04-18T18:41:15.265Z,79.63
2023-04-18T18:46:18.177Z,79.67
2023-04-18T18:51:18.147Z,80.35
2023-04-18T18:56:16.920Z,80.15
2023-04-18T19:01:15.944Z,80.54
2023-04-18T19:06:14.974Z,81.91
2023-04-18T19:11:13.784Z,80.29
2023-04-18T19:16:12.968Z,81.44
2023-04-18T19:21:11.744Z,81.74
2023-04-18T19:26:10.545Z,81.45
2023-04-18T19:31:09.613Z,81.33
2023-04-18T19:36:08.432Z,80.45
2023-04-18T19:41:07.324Z,81.52
2023-04-18T19:46:06.196Z,80.41
2023-04-18T19:51:05.075Z,80.19
2023-04-18T19:56:05.035Z,79.98
2023-04-18T20:01:06.030Z,79.82
2023-04-18T20:06:05.716Z,80.10
2023-04-18T20:11:07.241Z,80.77
2023-04-18T20:16:07.443Z,80.58
2023-04-18T20:21:08.249Z,81.48
2023-04-18T20:26:07.118Z,81.66
2023-04-18T20:31:06.084Z,81.08
2023-04-18T20:36:06.485Z,81.07
2023-04-18T20:41:05.255Z,81.74
2023-04-18T20:46:04.065Z,82.82
2023-04-18T20:51:02.903Z,83.15
2023-04-18T20:56:03.105Z,81.44
2023-04-18T21:01:01.885Z,81.15
2023-04-18T21:06:00.659Z,80.68
2023-04-18T21:10:59.428Z,81.05
2023-04-18T21:15:58.427Z,80.71
2023-04-18T21:20:57.243Z,80.68
2023-04-18T21:25:56.082Z,79.95
2023-04-18T21:30:54.842Z,80.65
2023-04-18T21:35:53.693Z,81.91
2023-04-18T21:40:52.481Z,81.33
2023-04-18T21:45:51.298Z,82.61
2023-04-18T21:50:56.273Z,81.65
2023-04-18T21:55:55.084Z,81.61
2023-04-18T22:00:54.255Z,82.26
2023-04-18T22:05:53.387Z,81.62
2023-04-18T22:10:55.055Z,81.41
2023-04-18T22:15:53.966Z,81.55
2023-04-18T22:20:53.900Z,81.57
2023-04-18T22:25:52.792Z,82.11
2023-04-18T22:30:51.672Z,82.13
2023-04-18T22:35:50.564Z,81.85
2023-04-18T22:40:49.505Z,82.08
2023-04-18T22:45:48.494Z,82.65
2023-04-18T22:50:47.548Z,81.96
2023-04-18T22:55:46.735Z,81.96
2023-04-18T23:00:45.995Z,82.04
2023-04-18T23:05:44.754Z,81.84
2023-04-18T23:10:43.510Z,82.55
2023-04-18T23:15:42.431Z,83.00
2023-04-18T23:20:41.307Z,83.36
2023-04-18T23:25:40.142Z,82.73
2023-04-18T23:30:39.170Z,82.78
2023-04-18T23:35:37.982Z,82.32
2023-04-18T23:40:36.733Z,81.82
2023-04-18T23:45:36.600Z,81.15
2023-04-18T23:50:46.112Z,82.07
2023-04-18T23:55:46.223Z,82.56
